Terminal Aerodrome Forecast
Issued by NWS

Home | Current Version | Previous Version | Text Only | Print | Product List | Glossary On
Versions: 1 2 3 4 5 6 7 8 9 10 11 12 13 14 15 16 17 18 19 20 21 22 23 24 25 26 27
000
FTUS45 KABQ 250528
TAFTCC
TAF
KTCC 250528Z 2506/2606 22008KT P6SM SKC
     FM251000 22011KT P6SM SCT015
     FM251600 22011KT P6SM SKC
     FM252000 20010G16KT P6SM SCT150
     FM260300 16016G26KT P6SM FEW150=

USA.gov is the U.S. government's official web portal to all federal, state and local government web resources and services.